sensor_id;sensor_type;location;lat;lon;timestamp;P1;durP1;ratioP1;P2;durP2;ratioP2
10872;SDS011;34586;53.616;10.032;2023-07-20T00:01:14;2.00;;;1.13;;
10872;SDS011;34586;53.616;10.032;2023-07-20T00:03:40;4.00;;;1.33;;
10872;SDS011;34586;53.616;10.032;2023-07-20T00:06:06;1.57;;;1.30;;
10872;SDS011;34586;53.616;10.032;2023-07-20T00:08:32;3.33;;;1.10;;
10872;SDS011;34586;53.616;10.032;2023-07-20T00:10:57;2.80;;;1.30;;
10872;SDS011;34586;53.616;10.032;2023-07-20T00:13:23;1.27;;;1.27;;
10872;SDS011;34586;53.616;10.032;2023-07-20T00:15:49;1.67;;;1.20;;
10872;SDS011;34586;53.616;10.032;2023-07-20T00:18:15;2.13;;;1.20;;
10872;SDS011;34586;53.616;10.032;2023-07-20T00:20:41;2.33;;;1.23;;
10872;SDS011;34586;53.616;10.032;2023-07-20T00:23:07;1.77;;;1.10;;
10872;SDS011;34586;53.616;10.032;2023-07-20T00:25:32;2.33;;;1.30;;
10872;SDS011;34586;53.616;10.032;2023-07-20T00:27:58;1.17;;;1.07;;
10872;SDS011;34586;53.616;10.032;2023-07-20T00:30:24;1.90;;;1.20;;
10872;SDS011;34586;53.616;10.032;2023-07-20T00:32:50;3.33;;;1.00;;
10872;SDS011;34586;53.616;10.032;2023-07-20T00:35:15;2.77;;;1.30;;
10872;SDS011;34586;53.616;10.032;2023-07-20T00:37:41;1.93;;;1.10;;
10872;SDS011;34586;53.616;10.032;2023-07-20T00:40:07;3.10;;;1.20;;
10872;SDS011;34586;53.616;10.032;2023-07-20T00:42:32;2.00;;;1.10;;
10872;SDS011;34586;53.616;10.032;2023-07-20T00:44:58;1.73;;;1.30;;
10872;SDS011;34586;53.616;10.032;2023-07-20T00:47:25;1.20;;;1.10;;
10872;SDS011;34586;53.616;10.032;2023-07-20T00:49:52;3.80;;;1.20;;
10872;SDS011;34586;53.616;10.032;2023-07-20T00:52:18;1.23;;;1.10;;
10872;SDS011;34586;53.616;10.032;2023-07-20T00:54:46;2.07;;;1.23;;
10872;SDS011;34586;53.616;10.032;2023-07-20T00:57:13;2.23;;;1.20;;
10872;SDS011;34586;53.616;10.032;2023-07-20T00:59:40;1.90;;;1.10;;
10872;SDS011;34586;53.616;10.032;2023-07-20T01:02:05;1.53;;;1.43;;
10872;SDS011;34586;53.616;10.032;2023-07-20T01:04:31;3.27;;;1.90;;
10872;SDS011;34586;53.616;10.032;2023-07-20T01:06:58;2.47;;;1.87;;
10872;SDS011;34586;53.616;10.032;2023-07-20T01:12:18;4.13;;;2.00;;
10872;SDS011;34586;53.616;10.032;2023-07-20T01:14:45;3.37;;;1.47;;
10872;SDS011;34586;53.616;10.032;2023-07-20T01:17:11;2.87;;;2.03;;
10872;SDS011;34586;53.616;10.032;2023-07-20T01:19:37;1.77;;;1.57;;
10872;SDS011;34586;53.616;10.032;2023-07-20T01:22:09;3.37;;;2.13;;
10872;SDS011;34586;53.616;10.032;2023-07-20T01:25:19;5.73;;;2.00;;
10872;SDS011;34586;53.616;10.032;2023-07-20T01:33:47;2.80;;;1.87;;
10872;SDS011;34586;53.616;10.032;2023-07-20T01:36:15;5.73;;;2.20;;
10872;SDS011;34586;53.616;10.032;2023-07-20T01:38:42;2.83;;;2.43;;
10872;SDS011;34586;53.616;10.032;2023-07-20T01:41:09;2.60;;;2.40;;
10872;SDS011;34586;53.616;10.032;2023-07-20T01:43:36;2.40;;;2.30;;
10872;SDS011;34586;53.616;10.032;2023-07-20T01:46:01;3.20;;;2.80;;
10872;SDS011;34586;53.616;10.032;2023-07-20T01:48:27;2.97;;;2.67;;
10872;SDS011;34586;53.616;10.032;2023-07-20T01:50:53;3.47;;;2.93;;
10872;SDS011;34586;53.616;10.032;2023-07-20T01:53:19;4.53;;;2.70;;
10872;SDS011;34586;53.616;10.032;2023-07-20T01:55:45;2.57;;;2.40;;
10872;SDS011;34586;53.616;10.032;2023-07-20T01:58:10;3.47;;;2.80;;
10872;SDS011;34586;53.616;10.032;2023-07-20T02:00:37;2.90;;;2.70;;
10872;SDS011;34586;53.616;10.032;2023-07-20T02:03:02;2.97;;;2.77;;
10872;SDS011;34586;53.616;10.032;2023-07-20T02:05:28;3.40;;;3.20;;
10872;SDS011;34586;53.616;10.032;2023-07-20T02:07:53;3.40;;;3.10;;
10872;SDS011;34586;53.616;10.032;2023-07-20T02:10:19;4.63;;;3.00;;
10872;SDS011;34586;53.616;10.032;2023-07-20T02:12:45;3.67;;;3.20;;
10872;SDS011;34586;53.616;10.032;2023-07-20T02:15:11;3.50;;;3.20;;
10872;SDS011;34586;53.616;10.032;2023-07-20T02:17:38;3.20;;;3.00;;
10872;SDS011;34586;53.616;10.032;2023-07-20T02:20:06;3.63;;;3.17;;
10872;SDS011;34586;53.616;10.032;2023-07-20T02:22:34;3.00;;;2.63;;
10872;SDS011;34586;53.616;10.032;2023-07-20T02:24:59;3.60;;;3.30;;
10872;SDS011;34586;53.616;10.032;2023-07-20T02:27:25;3.43;;;3.23;;
10872;SDS011;34586;53.616;10.032;2023-07-20T02:29:50;3.90;;;2.87;;
10872;SDS011;34586;53.616;10.032;2023-07-20T02:32:16;4.00;;;3.07;;
10872;SDS011;34586;53.616;10.032;2023-07-20T02:34:41;3.40;;;3.07;;
10872;SDS011;34586;53.616;10.032;2023-07-20T02:37:07;3.20;;;3.00;;
10872;SDS011;34586;53.616;10.032;2023-07-20T02:39:33;3.00;;;2.80;;
10872;SDS011;34586;53.616;10.032;2023-07-20T02:41:59;3.33;;;2.90;;
10872;SDS011;34586;53.616;10.032;2023-07-20T02:44:24;2.90;;;2.70;;
10872;SDS011;34586;53.616;10.032;2023-07-20T02:46:50;2.97;;;2.63;;
10872;SDS011;34586;53.616;10.032;2023-07-20T02:49:15;2.90;;;2.70;;
10872;SDS011;34586;53.616;10.032;2023-07-20T02:51:41;2.87;;;2.67;;
10872;SDS011;34586;53.616;10.032;2023-07-20T02:54:07;2.70;;;2.50;;
10872;SDS011;34586;53.616;10.032;2023-07-20T02:56:33;3.07;;;2.77;;
10872;SDS011;34586;53.616;10.032;2023-07-20T02:59:00;2.77;;;2.50;;
10872;SDS011;34586;53.616;10.032;2023-07-20T03:01:26;2.50;;;2.40;;
10872;SDS011;34586;53.616;10.032;2023-07-20T03:03:54;2.50;;;2.30;;
10872;SDS011;34586;53.616;10.032;2023-07-20T03:06:20;3.13;;;2.83;;
10872;SDS011;34586;53.616;10.032;2023-07-20T03:08:45;2.57;;;2.37;;
10872;SDS011;34586;53.616;10.032;2023-07-20T03:11:13;2.73;;;2.53;;
10872;SDS011;34586;53.616;10.032;2023-07-20T03:13:42;2.90;;;2.70;;
10872;SDS011;34586;53.616;10.032;2023-07-20T03:16:08;3.37;;;3.10;;
10872;SDS011;34586;53.616;10.032;2023-07-20T03:18:38;3.40;;;3.20;;
10872;SDS011;34586;53.616;10.032;2023-07-20T03:21:05;3.20;;;2.90;;
10872;SDS011;34586;53.616;10.032;2023-07-20T03:23:36;5.07;;;2.80;;
10872;SDS011;34586;53.616;10.032;2023-07-20T03:26:02;3.17;;;2.97;;
10872;SDS011;34586;53.616;10.032;2023-07-20T03:28:27;3.20;;;3.00;;
10872;SDS011;34586;53.616;10.032;2023-07-20T03:30:53;3.93;;;3.10;;
10872;SDS011;34586;53.616;10.032;2023-07-20T03:33:24;3.23;;;3.00;;
10872;SDS011;34586;53.616;10.032;2023-07-20T03:35:51;3.80;;;3.40;;
10872;SDS011;34586;53.616;10.032;2023-07-20T03:38:16;3.33;;;3.13;;
10872;SDS011;34586;53.616;10.032;2023-07-20T03:40:55;2.93;;;2.70;;
10872;SDS011;34586;53.616;10.032;2023-07-20T03:43:23;3.10;;;2.80;;
10872;SDS011;34586;53.616;10.032;2023-07-20T03:45:50;2.87;;;2.33;;
10872;SDS011;34586;53.616;10.032;2023-07-20T03:48:17;2.40;;;2.20;;
10872;SDS011;34586;53.616;10.032;2023-07-20T03:50:44;3.43;;;2.50;;
10872;SDS011;34586;53.616;10.032;2023-07-20T03:53:10;2.10;;;2.00;;
10872;SDS011;34586;53.616;10.032;2023-07-20T03:55:37;2.43;;;2.23;;
10872;SDS011;34586;53.616;10.032;2023-07-20T03:58:02;1.97;;;1.87;;
10872;SDS011;34586;53.616;10.032;2023-07-20T04:00:28;3.20;;;2.00;;
10872;SDS011;34586;53.616;10.032;2023-07-20T04:02:54;2.30;;;2.10;;
10872;SDS011;34586;53.616;10.032;2023-07-20T04:05:19;2.10;;;2.00;;
10872;SDS011;34586;53.616;10.032;2023-07-20T04:07:45;2.50;;;2.30;;
10872;SDS011;34586;53.616;10.032;2023-07-20T04:10:11;2.07;;;1.97;;
10872;SDS011;34586;53.616;10.032;2023-07-20T04:12:36;2.40;;;2.20;;
10872;SDS011;34586;53.616;10.032;2023-07-20T04:15:02;2.33;;;2.20;;
10872;SDS011;34586;53.616;10.032;2023-07-20T04:17:28;2.43;;;2.33;;
10872;SDS011;34586;53.616;10.032;2023-07-20T04:19:54;2.33;;;2.23;;
10872;SDS011;34586;53.616;10.032;2023-07-20T04:22:20;3.27;;;2.57;;
10872;SDS011;34586;53.616;10.032;2023-07-20T04:24:46;3.37;;;2.43;;
10872;SDS011;34586;53.616;10.032;2023-07-20T04:27:12;2.60;;;2.40;;
10872;SDS011;34586;53.616;10.032;2023-07-20T04:29:37;2.53;;;2.33;;
10872;SDS011;34586;53.616;10.032;2023-07-20T04:32:03;2.90;;;2.63;;
10872;SDS011;34586;53.616;10.032;2023-07-20T04:34:29;2.80;;;2.60;;
10872;SDS011;34586;53.616;10.032;2023-07-20T04:36:54;2.63;;;2.43;;
10872;SDS011;34586;53.616;10.032;2023-07-20T04:39:20;2.57;;;2.30;;
10872;SDS011;34586;53.616;10.032;2023-07-20T04:41:45;2.67;;;2.47;;
10872;SDS011;34586;53.616;10.032;2023-07-20T04:44:12;2.30;;;2.20;;
10872;SDS011;34586;53.616;10.032;2023-07-20T04:46:39;2.23;;;2.13;;
10872;SDS011;34586;53.616;10.032;2023-07-20T04:49:05;1.97;;;1.90;;
10872;SDS011;34586;53.616;10.032;2023-07-20T04:51:31;2.90;;;2.57;;
10872;SDS011;34586;53.616;10.032;2023-07-20T04:53:57;2.50;;;2.30;;
10872;SDS011;34586;53.616;10.032;2023-07-20T04:56:24;2.10;;;2.00;;
10872;SDS011;34586;53.616;10.032;2023-07-20T04:58:49;2.00;;;1.90;;
10872;SDS011;34586;53.616;10.032;2023-07-20T05:01:15;2.20;;;2.10;;
10872;SDS011;34586;53.616;10.032;2023-07-20T05:03:41;2.03;;;1.93;;
10872;SDS011;34586;53.616;10.032;2023-07-20T05:06:06;1.90;;;1.80;;
10872;SDS011;34586;53.616;10.032;2023-07-20T05:08:32;2.77;;;1.90;;
10872;SDS011;34586;53.616;10.032;2023-07-20T05:10:58;2.47;;;2.00;;
10872;SDS011;34586;53.616;10.032;2023-07-20T05:13:24;1.73;;;1.63;;
10872;SDS011;34586;53.616;10.032;2023-07-20T05:15:51;2.03;;;1.80;;
10872;SDS011;34586;53.616;10.032;2023-07-20T05:18:17;2.87;;;1.70;;
10872;SDS011;34586;53.616;10.032;2023-07-20T05:20:45;1.43;;;1.43;;
10872;SDS011;34586;53.616;10.032;2023-07-20T05:23:17;1.77;;;1.67;;
10872;SDS011;34586;53.616;10.032;2023-07-20T05:25:44;1.60;;;1.50;;
10872;SDS011;34586;53.616;10.032;2023-07-20T05:28:10;1.40;;;1.30;;
10872;SDS011;34586;53.616;10.032;2023-07-20T05:30:35;1.90;;;1.80;;
10872;SDS011;34586;53.616;10.032;2023-07-20T05:33:01;2.20;;;1.80;;
10872;SDS011;34586;53.616;10.032;2023-07-20T05:35:26;1.93;;;1.63;;
10872;SDS011;34586;53.616;10.032;2023-07-20T05:37:52;1.80;;;1.70;;
10872;SDS011;34586;53.616;10.032;2023-07-20T05:40:18;1.73;;;1.50;;
10872;SDS011;34586;53.616;10.032;2023-07-20T05:42:44;2.23;;;1.53;;
10872;SDS011;34586;53.616;10.032;2023-07-20T05:45:16;1.90;;;1.50;;
10872;SDS011;34586;53.616;10.032;2023-07-20T05:47:42;1.43;;;1.43;;
10872;SDS011;34586;53.616;10.032;2023-07-20T05:50:08;2.77;;;1.47;;
10872;SDS011;34586;53.616;10.032;2023-07-20T05:52:35;1.73;;;1.53;;
10872;SDS011;34586;53.616;10.032;2023-07-20T05:55:00;2.17;;;1.30;;
10872;SDS011;34586;53.616;10.032;2023-07-20T05:57:26;3.40;;;1.20;;
10872;SDS011;34586;53.616;10.032;2023-07-20T05:59:51;2.27;;;1.30;;
10872;SDS011;34586;53.616;10.032;2023-07-20T06:02:17;1.73;;;1.63;;
10872;SDS011;34586;53.616;10.032;2023-07-20T06:04:43;3.03;;;1.73;;
10872;SDS011;34586;53.616;10.032;2023-07-20T06:07:08;1.90;;;1.50;;
10872;SDS011;34586;53.616;10.032;2023-07-20T06:09:34;2.63;;;1.40;;
10872;SDS011;34586;53.616;10.032;2023-07-20T06:12:00;3.27;;;1.60;;
10872;SDS011;34586;53.616;10.032;2023-07-20T06:14:25;2.63;;;1.13;;
10872;SDS011;34586;53.616;10.032;2023-07-20T06:16:51;3.13;;;1.30;;
10872;SDS011;34586;53.616;10.032;2023-07-20T06:19:16;1.10;;;0.90;;
10872;SDS011;34586;53.616;10.032;2023-07-20T06:21:42;1.50;;;0.80;;
10872;SDS011;34586;53.616;10.032;2023-07-20T06:24:08;1.90;;;1.10;;
10872;SDS011;34586;53.616;10.032;2023-07-20T06:26:34;1.33;;;0.90;;
10872;SDS011;34586;53.616;10.032;2023-07-20T06:29:06;1.00;;;0.83;;
10872;SDS011;34586;53.616;10.032;2023-07-20T06:31:32;2.00;;;0.60;;
10872;SDS011;34586;53.616;10.032;2023-07-20T06:33:58;3.67;;;0.80;;
10872;SDS011;34586;53.616;10.032;2023-07-20T06:36:23;1.47;;;0.80;;
10872;SDS011;34586;53.616;10.032;2023-07-20T06:38:51;2.43;;;1.00;;
10872;SDS011;34586;53.616;10.032;2023-07-20T06:41:16;6.60;;;1.70;;
10872;SDS011;34586;53.616;10.032;2023-07-20T06:43:42;7.33;;;1.80;;
10872;SDS011;34586;53.616;10.032;2023-07-20T06:46:08;2.33;;;0.90;;
10872;SDS011;34586;53.616;10.032;2023-07-20T06:48:33;3.57;;;1.03;;
10872;SDS011;34586;53.616;10.032;2023-07-20T06:50:59;2.37;;;1.33;;
10872;SDS011;34586;53.616;10.032;2023-07-20T06:53:24;2.20;;;0.70;;
10872;SDS011;34586;53.616;10.032;2023-07-20T06:55:50;4.43;;;1.40;;
10872;SDS011;34586;53.616;10.032;2023-07-20T06:58:16;1.70;;;0.70;;
10872;SDS011;34586;53.616;10.032;2023-07-20T07:00:43;3.70;;;0.90;;
10872;SDS011;34586;53.616;10.032;2023-07-20T07:03:09;2.53;;;0.80;;
10872;SDS011;34586;53.616;10.032;2023-07-20T07:05:36;2.73;;;0.80;;
10872;SDS011;34586;53.616;10.032;2023-07-20T07:08:02;1.27;;;0.80;;
10872;SDS011;34586;53.616;10.032;2023-07-20T07:10:29;2.53;;;0.70;;
10872;SDS011;34586;53.616;10.032;2023-07-20T07:12:54;3.43;;;0.90;;
10872;SDS011;34586;53.616;10.032;2023-07-20T07:15:20;5.53;;;1.00;;
10872;SDS011;34586;53.616;10.032;2023-07-20T07:17:46;4.77;;;1.00;;
10872;SDS011;34586;53.616;10.032;2023-07-20T07:20:11;3.00;;;0.70;;
10872;SDS011;34586;53.616;10.032;2023-07-20T07:22:37;3.20;;;0.80;;
10872;SDS011;34586;53.616;10.032;2023-07-20T07:25:03;3.70;;;0.80;;
10872;SDS011;34586;53.616;10.032;2023-07-20T07:27:29;2.27;;;0.70;;
10872;SDS011;34586;53.616;10.032;2023-07-20T07:29:54;5.17;;;1.07;;
10872;SDS011;34586;53.616;10.032;2023-07-20T07:32:20;1.20;;;0.77;;
10872;SDS011;34586;53.616;10.032;2023-07-20T07:34:46;2.53;;;0.80;;
10872;SDS011;34586;53.616;10.032;2023-07-20T07:37:12;3.57;;;1.00;;
10872;SDS011;34586;53.616;10.032;2023-07-20T07:39:38;5.60;;;1.20;;
10872;SDS011;34586;53.616;10.032;2023-07-20T07:42:04;3.10;;;1.33;;
10872;SDS011;34586;53.616;10.032;2023-07-20T07:44:30;6.80;;;1.50;;
10872;SDS011;34586;53.616;10.032;2023-07-20T07:46:56;2.13;;;1.00;;
10872;SDS011;34586;53.616;10.032;2023-07-20T07:49:22;3.43;;;1.30;;
10872;SDS011;34586;53.616;10.032;2023-07-20T07:51:48;4.03;;;1.07;;
10872;SDS011;34586;53.616;10.032;2023-07-20T07:54:13;3.80;;;1.43;;
10872;SDS011;34586;53.616;10.032;2023-07-20T07:56:39;3.73;;;1.60;;
10872;SDS011;34586;53.616;10.032;2023-07-20T07:59:06;3.33;;;1.63;;
10872;SDS011;34586;53.616;10.032;2023-07-20T08:01:32;3.63;;;1.63;;
10872;SDS011;34586;53.616;10.032;2023-07-20T08:03:57;1.67;;;1.20;;
10872;SDS011;34586;53.616;10.032;2023-07-20T08:06:23;4.70;;;1.40;;
10872;SDS011;34586;53.616;10.032;2023-07-20T08:08:52;3.27;;;1.97;;
10872;SDS011;34586;53.616;10.032;2023-07-20T08:11:18;3.10;;;1.47;;
10872;SDS011;34586;53.616;10.032;2023-07-20T08:13:43;2.90;;;1.70;;
10872;SDS011;34586;53.616;10.032;2023-07-20T08:16:09;5.87;;;2.43;;
10872;SDS011;34586;53.616;10.032;2023-07-20T08:18:35;4.63;;;1.80;;
10872;SDS011;34586;53.616;10.032;2023-07-20T08:21:00;4.30;;;1.93;;
10872;SDS011;34586;53.616;10.032;2023-07-20T08:23:26;6.67;;;2.77;;
10872;SDS011;34586;53.616;10.032;2023-07-20T08:25:52;6.60;;;2.30;;
10872;SDS011;34586;53.616;10.032;2023-07-20T08:28:18;4.67;;;1.70;;
10872;SDS011;34586;53.616;10.032;2023-07-20T08:30:45;3.40;;;1.73;;
10872;SDS011;34586;53.616;10.032;2023-07-20T08:33:15;5.80;;;1.80;;
10872;SDS011;34586;53.616;10.032;2023-07-20T08:35:44;5.30;;;1.63;;
10872;SDS011;34586;53.616;10.032;2023-07-20T08:38:10;6.43;;;2.07;;
10872;SDS011;34586;53.616;10.032;2023-07-20T08:40:39;3.57;;;1.50;;
10872;SDS011;34586;53.616;10.032;2023-07-20T08:43:06;6.23;;;2.07;;
10872;SDS011;34586;53.616;10.032;2023-07-20T08:45:32;5.87;;;1.70;;
10872;SDS011;34586;53.616;10.032;2023-07-20T08:47:58;5.47;;;1.67;;
10872;SDS011;34586;53.616;10.032;2023-07-20T08:50:28;4.77;;;1.40;;
10872;SDS011;34586;53.616;10.032;2023-07-20T08:52:56;5.50;;;1.20;;
10872;SDS011;34586;53.616;10.032;2023-07-20T08:55:23;5.00;;;1.40;;
10872;SDS011;34586;53.616;10.032;2023-07-20T08:57:52;4.30;;;1.30;;
10872;SDS011;34586;53.616;10.032;2023-07-20T09:00:20;3.40;;;1.37;;
10872;SDS011;34586;53.616;10.032;2023-07-20T09:02:48;5.40;;;2.03;;
10872;SDS011;34586;53.616;10.032;2023-07-20T09:05:22;4.07;;;1.80;;
10872;SDS011;34586;53.616;10.032;2023-07-20T09:07:49;4.83;;;1.57;;
10872;SDS011;34586;53.616;10.032;2023-07-20T09:10:16;6.07;;;1.73;;
10872;SDS011;34586;53.616;10.032;2023-07-20T09:12:42;10.80;;;1.50;;
10872;SDS011;34586;53.616;10.032;2023-07-20T09:15:09;7.27;;;3.03;;
10872;SDS011;34586;53.616;10.032;2023-07-20T09:17:36;4.37;;;1.90;;
10872;SDS011;34586;53.616;10.032;2023-07-20T09:20:06;10.33;;;2.77;;
10872;SDS011;34586;53.616;10.032;2023-07-20T09:22:35;7.00;;;2.93;;
10872;SDS011;34586;53.616;10.032;2023-07-20T09:25:05;5.40;;;1.43;;
10872;SDS011;34586;53.616;10.032;2023-07-20T09:27:36;3.43;;;0.90;;
10872;SDS011;34586;53.616;10.032;2023-07-20T09:30:03;1.87;;;0.80;;
10872;SDS011;34586;53.616;10.032;2023-07-20T09:32:30;2.27;;;0.60;;
10872;SDS011;34586;53.616;10.032;2023-07-20T09:34:55;2.97;;;1.30;;
10872;SDS011;34586;53.616;10.032;2023-07-20T09:37:21;4.57;;;1.17;;
10872;SDS011;34586;53.616;10.032;2023-07-20T09:39:47;2.13;;;1.27;;
10872;SDS011;34586;53.616;10.032;2023-07-20T09:42:14;4.10;;;1.30;;
10872;SDS011;34586;53.616;10.032;2023-07-20T09:44:40;1.63;;;0.70;;
10872;SDS011;34586;53.616;10.032;2023-07-20T09:47:09;3.13;;;0.87;;
10872;SDS011;34586;53.616;10.032;2023-07-20T09:49:41;5.50;;;0.97;;
10872;SDS011;34586;53.616;10.032;2023-07-20T09:52:08;4.10;;;1.10;;
10872;SDS011;34586;53.616;10.032;2023-07-20T09:54:35;1.87;;;0.70;;
10872;SDS011;34586;53.616;10.032;2023-07-20T09:57:03;2.40;;;0.60;;
10872;SDS011;34586;53.616;10.032;2023-07-20T09:59:32;1.80;;;0.60;;
10872;SDS011;34586;53.616;10.032;2023-07-20T10:01:58;2.20;;;0.63;;
10872;SDS011;34586;53.616;10.032;2023-07-20T10:04:25;1.10;;;0.50;;
10872;SDS011;34586;53.616;10.032;2023-07-20T10:06:53;3.23;;;0.73;;
10872;SDS011;34586;53.616;10.032;2023-07-20T10:09:21;4.80;;;0.70;;
10872;SDS011;34586;53.616;10.032;2023-07-20T10:11:52;2.30;;;0.63;;
10872;SDS011;34586;53.616;10.032;2023-07-20T10:14:22;4.93;;;0.90;;
10872;SDS011;34586;53.616;10.032;2023-07-20T10:16:51;2.37;;;0.60;;
10872;SDS011;34586;53.616;10.032;2023-07-20T10:19:23;1.73;;;0.60;;
10872;SDS011;34586;53.616;10.032;2023-07-20T10:22:14;2.27;;;0.50;;
10872;SDS011;34586;53.616;10.032;2023-07-20T10:24:49;2.00;;;0.50;;
10872;SDS011;34586;53.616;10.032;2023-07-20T10:27:18;2.20;;;0.40;;
10872;SDS011;34586;53.616;10.032;2023-07-20T10:29:45;1.53;;;0.60;;
10872;SDS011;34586;53.616;10.032;2023-07-20T10:32:12;0.60;;;0.23;;
10872;SDS011;34586;53.616;10.032;2023-07-20T10:34:38;4.03;;;0.60;;
10872;SDS011;34586;53.616;10.032;2023-07-20T10:37:04;4.00;;;0.60;;
10872;SDS011;34586;53.616;10.032;2023-07-20T10:39:33;4.60;;;0.70;;
10872;SDS011;34586;53.616;10.032;2023-07-20T10:42:17;4.20;;;0.77;;
10872;SDS011;34586;53.616;10.032;2023-07-20T10:44:44;5.57;;;0.73;;
10872;SDS011;34586;53.616;10.032;2023-07-20T10:47:12;2.90;;;0.67;;
10872;SDS011;34586;53.616;10.032;2023-07-20T10:49:57;2.30;;;0.43;;
10872;SDS011;34586;53.616;10.032;2023-07-20T10:52:24;3.13;;;0.70;;
10872;SDS011;34586;53.616;10.032;2023-07-20T10:54:50;1.43;;;0.50;;
10872;SDS011;34586;53.616;10.032;2023-07-20T10:57:29;2.73;;;0.60;;
10872;SDS011;34586;53.616;10.032;2023-07-20T11:00:10;2.63;;;0.70;;
10872;SDS011;34586;53.616;10.032;2023-07-20T11:02:46;2.07;;;0.60;;
10872;SDS011;34586;53.616;10.032;2023-07-20T11:05:34;1.40;;;0.53;;
10872;SDS011;34586;53.616;10.032;2023-07-20T11:08:05;1.90;;;0.60;;
10872;SDS011;34586;53.616;10.032;2023-07-20T11:10:37;1.40;;;0.57;;
10872;SDS011;34586;53.616;10.032;2023-07-20T11:13:22;2.47;;;0.50;;
10872;SDS011;34586;53.616;10.032;2023-07-20T11:18:27;4.23;;;0.60;;
10872;SDS011;34586;53.616;10.032;2023-07-20T11:20:52;5.30;;;0.70;;
10872;SDS011;34586;53.616;10.032;2023-07-20T11:23:22;3.03;;;0.73;;
10872;SDS011;34586;53.616;10.032;2023-07-20T11:25:48;4.30;;;0.87;;
10872;SDS011;34586;53.616;10.032;2023-07-20T11:28:14;3.07;;;0.77;;
10872;SDS011;34586;53.616;10.032;2023-07-20T11:30:40;3.70;;;0.73;;
10872;SDS011;34586;53.616;10.032;2023-07-20T11:33:09;1.57;;;0.63;;
10872;SDS011;34586;53.616;10.032;2023-07-20T11:35:36;0.73;;;0.40;;
10872;SDS011;34586;53.616;10.032;2023-07-20T11:38:07;3.50;;;0.93;;
10872;SDS011;34586;53.616;10.032;2023-07-20T11:40:33;2.57;;;0.50;;
10872;SDS011;34586;53.616;10.032;2023-07-20T11:42:58;3.10;;;0.40;;
10872;SDS011;34586;53.616;10.032;2023-07-20T11:45:25;1.40;;;0.40;;
10872;SDS011;34586;53.616;10.032;2023-07-20T11:47:52;5.10;;;0.50;;
10872;SDS011;34586;53.616;10.032;2023-07-20T11:50:18;1.83;;;0.50;;
10872;SDS011;34586;53.616;10.032;2023-07-20T11:52:43;3.00;;;0.50;;
10872;SDS011;34586;53.616;10.032;2023-07-20T11:55:09;2.00;;;0.43;;
10872;SDS011;34586;53.616;10.032;2023-07-20T11:57:36;1.07;;;0.67;;
10872;SDS011;34586;53.616;10.032;2023-07-20T12:00:03;2.30;;;0.40;;
10872;SDS011;34586;53.616;10.032;2023-07-20T12:02:34;1.83;;;0.53;;
10872;SDS011;34586;53.616;10.032;2023-07-20T12:04:59;0.83;;;0.50;;
10872;SDS011;34586;53.616;10.032;2023-07-20T12:07:27;3.90;;;0.40;;
10872;SDS011;34586;53.616;10.032;2023-07-20T12:10:07;4.47;;;0.60;;
10872;SDS011;34586;53.616;10.032;2023-07-20T12:12:34;3.90;;;0.63;;
10872;SDS011;34586;53.616;10.032;2023-07-20T12:15:35;3.53;;;0.80;;
10872;SDS011;34586;53.616;10.032;2023-07-20T12:17:59;2.87;;;0.70;;
10872;SDS011;34586;53.616;10.032;2023-07-20T12:20:32;2.10;;;0.60;;
10872;SDS011;34586;53.616;10.032;2023-07-20T12:23:11;2.67;;;0.90;;
10872;SDS011;34586;53.616;10.032;2023-07-20T12:25:39;3.83;;;1.00;;
10872;SDS011;34586;53.616;10.032;2023-07-20T12:28:07;4.43;;;0.83;;
10872;SDS011;34586;53.616;10.032;2023-07-20T12:30:37;2.73;;;0.60;;
10872;SDS011;34586;53.616;10.032;2023-07-20T12:33:03;5.50;;;1.10;;
10872;SDS011;34586;53.616;10.032;2023-07-20T12:35:29;3.27;;;0.93;;
10872;SDS011;34586;53.616;10.032;2023-07-20T12:37:58;3.63;;;0.70;;
10872;SDS011;34586;53.616;10.032;2023-07-20T12:40:24;5.90;;;1.17;;
10872;SDS011;34586;53.616;10.032;2023-07-20T12:42:50;5.93;;;2.23;;
10872;SDS011;34586;53.616;10.032;2023-07-20T12:45:16;4.07;;;1.50;;
10872;SDS011;34586;53.616;10.032;2023-07-20T12:47:42;7.07;;;4.43;;
10872;SDS011;34586;53.616;10.032;2023-07-20T12:50:09;6.27;;;4.10;;
10872;SDS011;34586;53.616;10.032;2023-07-20T12:52:36;4.70;;;1.37;;
10872;SDS011;34586;53.616;10.032;2023-07-20T12:55:03;2.97;;;1.10;;
10872;SDS011;34586;53.616;10.032;2023-07-20T12:57:30;4.63;;;0.70;;
10872;SDS011;34586;53.616;10.032;2023-07-20T12:59:55;3.40;;;0.90;;
10872;SDS011;34586;53.616;10.032;2023-07-20T13:02:21;2.67;;;0.80;;
10872;SDS011;34586;53.616;10.032;2023-07-20T13:04:46;3.17;;;0.80;;
10872;SDS011;34586;53.616;10.032;2023-07-20T13:07:12;3.33;;;0.60;;
10872;SDS011;34586;53.616;10.032;2023-07-20T13:09:37;1.40;;;0.57;;
10872;SDS011;34586;53.616;10.032;2023-07-20T13:12:03;2.23;;;0.60;;
10872;SDS011;34586;53.616;10.032;2023-07-20T13:14:29;5.87;;;0.70;;
10872;SDS011;34586;53.616;10.032;2023-07-20T13:16:57;4.27;;;0.47;;
10872;SDS011;34586;53.616;10.032;2023-07-20T13:19:23;1.73;;;0.70;;
10872;SDS011;34586;53.616;10.032;2023-07-20T13:21:49;1.03;;;0.30;;
10872;SDS011;34586;53.616;10.032;2023-07-20T13:24:14;2.63;;;0.50;;
10872;SDS011;34586;53.616;10.032;2023-07-20T13:26:40;1.17;;;0.30;;
10872;SDS011;34586;53.616;10.032;2023-07-20T13:29:06;2.17;;;0.50;;
10872;SDS011;34586;53.616;10.032;2023-07-20T13:31:31;1.73;;;0.50;;
10872;SDS011;34586;53.616;10.032;2023-07-20T13:33:57;1.40;;;0.50;;
10872;SDS011;34586;53.616;10.032;2023-07-20T13:36:23;0.80;;;0.60;;
10872;SDS011;34586;53.616;10.032;2023-07-20T13:38:49;2.37;;;0.50;;
10872;SDS011;34586;53.616;10.032;2023-07-20T13:41:14;1.93;;;0.47;;
10872;SDS011;34586;53.616;10.032;2023-07-20T13:43:41;2.20;;;0.50;;
10872;SDS011;34586;53.616;10.032;2023-07-20T13:46:07;1.83;;;0.50;;
10872;SDS011;34586;53.616;10.032;2023-07-20T13:48:32;4.97;;;0.67;;
10872;SDS011;34586;53.616;10.032;2023-07-20T13:50:58;1.33;;;0.40;;
10872;SDS011;34586;53.616;10.032;2023-07-20T13:53:23;2.07;;;0.60;;
10872;SDS011;34586;53.616;10.032;2023-07-20T13:55:49;2.40;;;0.77;;
10872;SDS011;34586;53.616;10.032;2023-07-20T13:58:15;2.43;;;0.50;;
10872;SDS011;34586;53.616;10.032;2023-07-20T14:00:41;0.87;;;0.27;;
10872;SDS011;34586;53.616;10.032;2023-07-20T14:03:06;1.10;;;0.30;;
10872;SDS011;34586;53.616;10.032;2023-07-20T14:05:33;1.40;;;0.30;;
10872;SDS011;34586;53.616;10.032;2023-07-20T14:07:58;1.13;;;0.40;;
10872;SDS011;34586;53.616;10.032;2023-07-20T14:10:24;1.43;;;0.40;;
10872;SDS011;34586;53.616;10.032;2023-07-20T14:12:50;2.03;;;0.40;;
10872;SDS011;34586;53.616;10.032;2023-07-20T14:15:15;2.10;;;0.60;;
10872;SDS011;34586;53.616;10.032;2023-07-20T14:17:42;1.03;;;0.30;;
10872;SDS011;34586;53.616;10.032;2023-07-20T14:20:08;1.07;;;0.33;;
10872;SDS011;34586;53.616;10.032;2023-07-20T14:22:34;2.83;;;0.50;;
10872;SDS011;34586;53.616;10.032;2023-07-20T14:25:00;2.47;;;0.47;;
10872;SDS011;34586;53.616;10.032;2023-07-20T14:27:25;2.17;;;0.40;;
10872;SDS011;34586;53.616;10.032;2023-07-20T14:29:51;2.30;;;0.60;;
10872;SDS011;34586;53.616;10.032;2023-07-20T14:32:18;1.53;;;0.53;;
10872;SDS011;34586;53.616;10.032;2023-07-20T14:34:43;1.50;;;0.67;;
10872;SDS011;34586;53.616;10.032;2023-07-20T14:37:09;1.20;;;0.40;;
10872;SDS011;34586;53.616;10.032;2023-07-20T14:39:35;1.17;;;0.50;;
10872;SDS011;34586;53.616;10.032;2023-07-20T14:42:01;1.23;;;0.50;;
10872;SDS011;34586;53.616;10.032;2023-07-20T14:44:28;1.33;;;0.50;;